Time;durP1;ratioP1;P1;durP2;ratioP2;P2;SDS_P1;SDS_P2;PMS_P1;PMS_P2;Temp;Humidity;BMP_temperature;BMP_pressure;BME280_temperature;BME280_humidity;BME280_pressure;Samples;Min_cycle;Max_cycle;Signal;HPM_P1;HPM_P2
2023/07/01 00:01:32;;;;;;;4.70;2.70;;;;;;;13.64;100.00;99601.91;4991686;28;20784;-67
2023/07/01 00:03:57;;;;;;;5.27;2.97;;;;;;;13.67;100.00;99596.50;4995157;28;20559;-67
2023/07/01 00:06:22;;;;;;;3.37;2.53;;;;;;;13.70;100.00;99593.69;4986134;28;20604;-66
2023/07/01 00:08:48;;;;;;;3.83;2.20;;;;;;;13.71;100.00;99594.53;4999601;28;20183;-66
2023/07/01 00:11:14;;;;;;;6.50;2.87;;;;;;;13.82;100.00;99591.13;4997066;28;20312;-68
2023/07/01 00:13:39;;;;;;;5.17;2.30;;;;;;;13.72;100.00;99589.22;4996470;28;20715;-68
2023/07/01 00:16:04;;;;;;;5.77;2.90;;;;;;;13.78;100.00;99595.72;4996725;28;20187;-68
2023/07/01 00:18:30;;;;;;;4.73;2.70;;;;;;;13.69;100.00;99586.88;5000371;28;20620;-67
2023/07/01 00:20:56;;;;;;;5.37;2.60;;;;;;;13.72;100.00;99583.25;4991570;28;20242;-67
2023/07/01 00:23:21;;;;;;;6.03;2.80;;;;;;;13.87;100.00;99586.41;5000665;28;20354;-66
2023/07/01 00:25:47;;;;;;;3.90;2.40;;;;;;;13.77;100.00;99580.28;4993477;28;20555;-67
2023/07/01 00:28:12;;;;;;;3.47;2.60;;;;;;;13.75;100.00;99582.19;4989806;28;20246;-67
2023/07/01 00:30:38;;;;;;;2.53;2.20;;;;;;;13.81;100.00;99579.13;4987050;28;20732;-67
2023/07/01 00:33:05;;;;;;;2.67;2.40;;;;;;;13.74;100.00;99576.19;4992556;28;20223;-67
2023/07/01 00:35:33;;;;;;;3.40;2.33;;;;;;;13.71;100.00;99577.25;4982858;28;20537;-67
2023/07/01 00:37:59;;;;;;;2.97;2.20;;;;;;;13.60;100.00;99577.22;4993194;28;20238;-68
2023/07/01 00:40:24;;;;;;;4.30;2.30;;;;;;;13.64;100.00;99572.66;4991835;28;20697;-65
2023/07/01 00:42:50;;;;;;;2.87;2.57;;;;;;;13.66;100.00;99566.44;4995210;28;20697;-66
2023/07/01 00:45:15;;;;;;;4.00;2.60;;;;;;;13.60;100.00;99558.34;4988088;28;20187;-66
2023/07/01 00:47:40;;;;;;;6.27;2.57;;;;;;;13.52;100.00;99557.16;4988060;28;20183;-65
2023/07/01 00:50:10;;;;;;;6.27;2.63;;;;;;;13.40;100.00;99552.91;4982550;28;20191;-66
2023/07/01 00:52:36;;;;;;;4.33;2.40;;;;;;;13.36;100.00;99559.22;4998678;28;20200;-66
2023/07/01 00:55:01;;;;;;;6.07;2.70;;;;;;;13.32;100.00;99557.78;4987431;28;20594;-66
2023/07/01 00:57:27;;;;;;;4.37;2.53;;;;;;;13.33;100.00;99555.06;4993984;28;20175;-66
2023/07/01 00:59:52;;;;;;;2.80;2.03;;;;;;;13.34;100.00;99551.56;4993743;28;20206;-66
2023/07/01 01:02:24;;;;;;;2.77;2.23;;;;;;;13.35;100.00;99548.03;4995853;28;20245;-67
2023/07/01 01:05:02;;;;;;;3.67;2.40;;;;;;;13.38;100.00;99545.28;5001030;28;20182;-67
2023/07/01 01:07:46;;;;;;;6.00;3.20;;;;;;;13.21;100.00;99543.09;4996358;28;20179;-67
2023/07/01 01:10:16;;;;;;;3.20;2.60;;;;;;;13.22;100.00;99539.56;4982666;28;20176;-66
2023/07/01 01:12:44;;;;;;;5.20;2.30;;;;;;;13.21;100.00;99533.59;5003124;28;20187;-67
2023/07/01 01:15:11;;;;;;;3.07;2.43;;;;;;;13.22;100.00;99529.22;4990460;28;20176;-66
2023/07/01 01:17:40;;;;;;;4.67;2.87;;;;;;;13.10;100.00;99531.00;4991566;28;20194;-67
2023/07/01 01:20:12;;;;;;;4.10;2.40;;;;;;;13.15;100.00;99533.22;4977285;28;20569;-66
2023/07/01 01:22:49;;;;;;;2.63;2.27;;;;;;;13.17;100.00;99528.75;5006096;28;20214;-67
2023/07/01 01:25:28;;;;;;;2.47;2.20;;;;;;;13.24;100.00;99533.34;4999404;28;20592;-67
2023/07/01 01:27:55;;;;;;;3.50;2.37;;;;;;;13.36;100.00;99531.63;4987232;28;20611;-66
2023/07/01 01:30:24;;;;;;;4.23;2.43;;;;;;;13.36;100.00;99529.03;4972941;28;20540;-67
2023/07/01 01:32:50;;;;;;;2.60;2.27;;;;;;;13.33;100.00;99526.66;5003440;28;20204;-68
2023/07/01 01:35:16;;;;;;;4.50;2.80;;;;;;;13.35;100.00;99519.63;4986889;28;20257;-67
2023/07/01 01:37:46;;;;;;;3.10;2.73;;;;;;;13.34;100.00;99517.16;4990494;28;20183;-67
2023/07/01 01:40:25;;;;;;;5.10;2.60;;;;;;;13.31;100.00;99518.22;4977370;28;20598;-67
2023/07/01 01:42:56;;;;;;;3.37;2.43;;;;;;;13.42;100.00;99512.28;5002609;28;20253;-67
2023/07/01 01:45:22;;;;;;;4.00;2.90;;;;;;;13.48;100.00;99514.41;4990827;28;20279;-67
2023/07/01 01:47:49;;;;;;;3.50;2.63;;;;;;;13.38;100.00;99508.28;4989252;28;20199;-67
2023/07/01 01:50:17;;;;;;;3.07;2.50;;;;;;;13.49;100.00;99508.28;4982460;28;20271;-66
2023/07/01 01:52:43;;;;;;;3.50;2.70;;;;;;;13.50;100.00;99507.34;4974267;28;20191;-67
2023/07/01 01:55:12;;;;;;;4.17;2.27;;;;;;;13.52;100.00;99504.63;4989550;28;20238;-67
2023/07/01 01:57:37;;;;;;;4.10;2.73;;;;;;;13.63;100.00;99514.16;4986365;28;20234;-67
2023/07/01 02:00:08;;;;;;;4.07;2.40;;;;;;;13.70;100.00;99499.81;4983633;28;20187;-66
2023/07/01 02:02:34;;;;;;;2.93;2.33;;;;;;;13.73;100.00;99502.19;5005892;28;20265;-66
2023/07/01 02:04:59;;;;;;;3.47;2.93;;;;;;;13.79;100.00;99506.88;4997215;28;20180;-66
2023/07/01 02:07:25;;;;;;;4.13;2.23;;;;;;;13.82;100.00;99506.63;5002395;28;20179;-67
2023/07/01 02:09:50;;;;;;;3.53;2.50;;;;;;;13.92;100.00;99504.16;5011556;28;20193;-66
2023/07/01 02:12:15;;;;;;;4.07;2.40;;;;;;;13.92;100.00;99506.75;5004907;28;20677;-66
2023/07/01 02:14:41;;;;;;;2.43;1.97;;;;;;;13.87;100.00;99499.34;5005306;28;20185;-66
2023/07/01 02:17:06;;;;;;;2.53;2.33;;;;;;;13.86;100.00;99502.84;4998262;28;20633;-66
2023/07/01 02:19:31;;;;;;;3.10;2.47;;;;;;;13.94;100.00;99496.28;5011618;28;20254;-66
2023/07/01 02:21:56;;;;;;;9.10;2.23;;;;;;;13.87;100.00;99495.94;4998896;28;20272;-66
2023/07/01 02:24:22;;;;;;;3.13;2.40;;;;;;;13.71;100.00;99497.13;5002493;28;20186;-66
2023/07/01 02:26:47;;;;;;;4.93;2.53;;;;;;;13.77;100.00;99489.81;4998291;28;20249;-66
2023/07/01 02:29:12;;;;;;;3.37;2.57;;;;;;;13.89;100.00;99488.88;5011303;28;20182;-66
2023/07/01 02:31:37;;;;;;;5.10;2.53;;;;;;;13.95;100.00;99490.16;4996873;28;20227;-66
2023/07/01 02:34:03;;;;;;;2.73;2.23;;;;;;;13.98;100.00;99487.31;4994502;28;20211;-66
2023/07/01 02:36:29;;;;;;;2.67;2.43;;;;;;;14.07;100.00;99485.81;4990478;28;20553;-66
2023/07/01 02:38:54;;;;;;;7.03;2.40;;;;;;;14.12;100.00;99481.09;4991905;28;20179;-66
2023/07/01 02:41:19;;;;;;;3.30;2.50;;;;;;;14.07;100.00;99480.63;4994670;28;20300;-66
2023/07/01 02:43:44;;;;;;;2.30;2.10;;;;;;;14.14;100.00;99480.00;5016727;28;20218;-66
2023/07/01 02:46:10;;;;;;;3.93;2.47;;;;;;;14.17;100.00;99476.34;4994505;28;20703;-66
2023/07/01 02:48:35;;;;;;;4.37;2.30;;;;;;;14.28;100.00;99478.91;4990581;28;20194;-66
2023/07/01 02:51:00;;;;;;;2.73;2.27;;;;;;;14.34;100.00;99483.59;4989556;28;20736;-66
2023/07/01 02:53:26;;;;;;;3.03;2.17;;;;;;;14.37;100.00;99479.94;5003491;28;20183;-66
2023/07/01 02:55:51;;;;;;;2.80;2.10;;;;;;;14.26;100.00;99485.16;4995072;28;20210;-65
2023/07/01 02:58:19;;;;;;;2.90;2.60;;;;;;;14.34;100.00;99493.13;4995461;28;20179;-66
2023/07/01 03:00:45;;;;;;;5.77;2.73;;;;;;;14.41;100.00;99483.09;4976175;28;20225;-66
2023/07/01 03:03:10;;;;;;;4.83;2.70;;;;;;;14.40;100.00;99479.69;4994891;28;20203;-65
2023/07/01 03:05:36;;;;;;;3.07;2.23;;;;;;;14.46;100.00;99481.78;4995232;28;20238;-65
2023/07/01 03:08:01;;;;;;;3.87;2.57;;;;;;;14.54;100.00;99476.00;5009684;28;20183;-64
2023/07/01 03:10:27;;;;;;;3.47;2.30;;;;;;;14.64;100.00;99479.47;5007602;28;20241;-65
2023/07/01 03:12:53;;;;;;;2.40;2.20;;;;;;;14.71;100.00;99479.00;5025599;28;20711;-65
2023/07/01 03:15:18;;;;;;;5.07;2.23;;;;;;;14.68;100.00;99485.25;5005747;28;20175;-65
2023/07/01 03:17:44;;;;;;;2.87;2.17;;;;;;;14.60;100.00;99475.50;5025813;28;20201;-65
2023/07/01 03:20:22;;;;;;;6.67;3.00;;;;;;;14.47;100.00;99473.06;5004979;28;20378;-65
2023/07/01 03:22:51;;;;;;;4.70;2.90;;;;;;;14.54;100.00;99473.41;5025771;28;20276;-65
2023/07/01 03:25:17;;;;;;;4.70;2.83;;;;;;;14.39;100.00;99469.44;5013502;28;20214;-65
2023/07/01 03:27:43;;;;;;;8.13;2.50;;;;;;;14.51;100.00;99471.06;5012769;28;20222;-65
2023/07/01 03:30:13;;;;;;;2.83;1.97;;;;;;;14.63;100.00;99456.31;4984433;28;20194;-66
2023/07/01 03:32:40;;;;;;;4.53;2.27;;;;;;;14.60;100.00;99459.97;5026066;28;20252;-65
2023/07/01 03:35:05;;;;;;;5.87;2.40;;;;;;;14.65;100.00;99469.97;5012004;28;20190;-65
2023/07/01 03:37:30;;;;;;;2.83;2.47;;;;;;;14.80;100.00;99466.13;5009935;28;20591;-65
2023/07/01 03:39:56;;;;;;;3.77;2.40;;;;;;;14.81;100.00;99457.41;5013500;28;20203;-65
2023/07/01 03:42:21;;;;;;;2.03;1.77;;;;;;;14.81;100.00;99459.16;5016889;28;20250;-65
2023/07/01 03:44:47;;;;;;;3.03;2.30;;;;;;;14.99;100.00;99464.59;5012714;28;20178;-65
2023/07/01 03:47:13;;;;;;;3.47;2.57;;;;;;;14.93;100.00;99460.72;5010426;28;20528;-65
2023/07/01 03:49:38;;;;;;;3.17;2.33;;;;;;;14.98;100.00;99460.34;5013101;28;20186;-64
2023/07/01 03:52:04;;;;;;;4.70;2.10;;;;;;;14.89;100.00;99464.53;5017181;28;20242;-65
2023/07/01 03:54:29;;;;;;;5.60;2.37;;;;;;;15.01;100.00;99467.88;5012246;28;20195;-65
2023/07/01 03:56:54;;;;;;;4.60;2.53;;;;;;;15.15;100.00;99464.94;5011539;28;20190;-65
2023/07/01 03:59:19;;;;;;;4.00;2.40;;;;;;;15.23;100.00;99460.91;5012550;28;20181;-65
2023/07/01 04:01:45;;;;;;;3.80;2.43;;;;;;;15.10;100.00;99459.34;5013977;28;20221;-65
2023/07/01 04:04:10;;;;;;;6.87;2.40;;;;;;;15.23;100.00;99460.91;5010423;28;20320;-65
2023/07/01 04:06:35;;;;;;;4.30;2.43;;;;;;;15.09;100.00;99454.28;4999991;28;20187;-64
2023/07/01 04:09:00;;;;;;;7.93;2.43;;;;;;;15.21;100.00;99449.81;5013644;28;20179;-65
2023/07/01 04:11:26;;;;;;;4.50;2.40;;;;;;;15.36;100.00;99450.31;5013673;28;20760;-64
2023/07/01 04:13:51;;;;;;;5.70;2.80;;;;;;;15.33;100.00;99444.44;5018054;28;20190;-64
2023/07/01 04:16:16;;;;;;;4.03;2.00;;;;;;;15.26;100.00;99448.50;5012163;28;20642;-65
2023/07/01 04:18:41;;;;;;;7.40;2.50;;;;;;;15.29;100.00;99443.06;5012281;28;20171;-65
2023/07/01 04:21:07;;;;;;;3.63;2.10;;;;;;;15.40;100.00;99455.09;5011043;28;20244;-65
2023/07/01 04:23:32;;;;;;;4.20;2.00;;;;;;;15.59;100.00;99456.13;5012288;28;20205;-65
2023/07/01 04:25:57;;;;;;;2.70;2.40;;;;;;;15.52;100.00;99453.25;5012095;28;20183;-65
2023/07/01 04:28:23;;;;;;;3.13;2.53;;;;;;;15.61;100.00;99451.63;5011545;28;20317;-65
2023/07/01 04:30:48;;;;;;;4.27;2.70;;;;;;;15.77;100.00;99451.94;5007906;28;20230;-66
2023/07/01 04:33:13;;;;;;;3.30;2.37;;;;;;;15.77;100.00;99454.53;5022480;28;20558;-65
2023/07/01 04:35:39;;;;;;;4.33;2.50;;;;;;;15.86;100.00;99452.13;5012157;28;20582;-65
2023/07/01 04:38:04;;;;;;;4.20;2.90;;;;;;;16.02;100.00;99446.44;5010266;28;20186;-65
2023/07/01 04:40:29;;;;;;;5.60;2.70;;;;;;;16.11;100.00;99448.19;5005497;28;20313;-65
2023/07/01 04:42:55;;;;;;;4.93;2.73;;;;;;;16.14;100.00;99443.56;5023621;28;20232;-65
2023/07/01 04:45:21;;;;;;;6.23;2.60;;;;;;;16.21;100.00;99438.66;5011304;28;20266;-65
2023/07/01 04:47:47;;;;;;;3.67;2.77;;;;;;;16.43;100.00;99441.91;5012943;28;20649;-64
2023/07/01 04:50:13;;;;;;;4.03;2.30;;;;;;;16.64;100.00;99438.34;5003498;28;20179;-65
2023/07/01 04:52:39;;;;;;;4.13;2.47;;;;;;;16.88;100.00;99435.28;5026511;28;20607;-63
2023/07/01 04:55:04;;;;;;;4.93;2.57;;;;;;;17.18;100.00;99429.06;5011170;28;20187;-64
2023/07/01 04:57:30;;;;;;;4.00;2.80;;;;;;;17.42;100.00;99430.34;5012416;28;20508;-65
2023/07/01 04:59:55;;;;;;;4.17;2.57;;;;;;;17.27;100.00;99424.81;5011622;28;20265;-66
2023/07/01 05:02:20;;;;;;;2.33;2.10;;;;;;;17.36;100.00;99426.53;5017487;28;20230;-66
2023/07/01 05:04:45;;;;;;;5.73;3.07;;;;;;;17.41;100.00;99426.94;5008552;28;20205;-66
2023/07/01 05:07:11;;;;;;;3.77;2.63;;;;;;;17.64;100.00;99423.94;5000162;28;20183;-66
2023/07/01 05:09:36;;;;;;;3.47;2.13;;;;;;;17.67;100.00;99423.63;4999113;28;20191;-65
2023/07/01 05:12:02;;;;;;;6.13;2.60;;;;;;;17.44;100.00;99418.03;5017468;28;20631;-65
2023/07/01 05:14:28;;;;;;;2.83;2.40;;;;;;;17.49;100.00;99418.41;5010582;28;20262;-66
2023/07/01 05:16:53;;;;;;;3.57;2.23;;;;;;;17.92;100.00;99413.47;5012523;28;20189;-65
2023/07/01 05:19:18;;;;;;;4.73;2.67;;;;;;;18.17;99.42;99419.75;5012018;28;20183;-65
2023/07/01 05:21:49;;;;;;;4.20;2.47;;;;;;;18.44;98.62;99420.59;5015097;28;20218;-65
2023/07/01 05:24:15;;;;;;;4.03;2.00;;;;;;;18.85;96.04;99422.66;4997076;28;20211;-66
2023/07/01 05:26:44;;;;;;;1.90;1.80;;;;;;;19.02;94.80;99419.22;5003394;28;20226;-66
2023/07/01 05:29:09;;;;;;;3.30;2.00;;;;;;;19.38;91.52;99415.63;4993110;28;20219;-66
2023/07/01 05:31:34;;;;;;;4.73;2.50;;;;;;;19.28;89.13;99410.53;4994318;28;20256;-66
2023/07/01 05:33:59;;;;;;;3.53;1.93;;;;;;;19.54;88.90;99403.63;4995634;28;20206;-66
2023/07/01 05:36:25;;;;;;;5.10;2.50;;;;;;;20.21;82.92;99408.00;4992406;28;20568;-65
2023/07/01 05:38:50;;;;;;;3.97;1.80;;;;;;;20.72;76.72;99405.19;4992307;28;20238;-65
2023/07/01 05:41:15;;;;;;;2.87;2.10;;;;;;;20.73;79.11;99404.22;5000702;28;20222;-66
2023/07/01 05:43:40;;;;;;;2.90;1.97;;;;;;;21.00;75.29;99402.16;5017441;28;20277;-66
2023/07/01 05:46:06;;;;;;;4.27;2.20;;;;;;;20.71;73.91;99401.75;5011189;28;20183;-65
2023/07/01 05:48:31;;;;;;;4.37;2.13;;;;;;;20.78;74.27;99397.47;5010670;28;20198;-65
2023/07/01 05:50:56;;;;;;;5.47;2.50;;;;;;;20.88;72.48;99404.34;5008650;28;20271;-65
2023/07/01 05:53:22;;;;;;;4.10;2.63;;;;;;;20.93;73.01;99399.41;5019117;28;20197;-66
2023/07/01 05:55:47;;;;;;;4.10;2.63;;;;;;;21.19;70.44;99399.16;5011045;28;20669;-66
2023/07/01 05:58:12;;;;;;;6.57;2.57;;;;;;;21.32;70.27;99395.97;5010321;28;20689;-66
2023/07/01 06:00:37;;;;;;;4.60;2.30;;;;;;;21.32;69.04;99398.59;5005857;28;20230;-65
2023/07/01 06:03:03;;;;;;;5.37;2.77;;;;;;;21.25;72.21;99401.09;5020910;28;20210;-65
2023/07/01 06:05:28;;;;;;;5.60;3.30;;;;;;;21.12;72.74;99404.25;5003274;28;20191;-66
2023/07/01 06:07:53;;;;;;;6.60;2.90;;;;;;;20.49;75.01;99403.22;5004995;28;20575;-65
2023/07/01 06:10:18;;;;;;;4.10;2.63;;;;;;;20.28;78.90;99412.38;4984193;28;20273;-65
2023/07/01 06:12:44;;;;;;;6.53;2.80;;;;;;;20.34;80.41;99403.06;4990392;28;20554;-66
2023/07/01 06:15:09;;;;;;;5.07;2.57;;;;;;;20.32;83.06;99405.84;4988559;28;20175;-66
2023/07/01 06:17:35;;;;;;;6.60;2.90;;;;;;;20.11;80.06;99398.50;4974111;28;20279;-65
2023/07/01 06:20:00;;;;;;;5.57;2.50;;;;;;;20.18;78.64;99395.25;4983563;28;20184;-65
2023/07/01 06:22:25;;;;;;;5.43;2.70;;;;;;;20.37;80.90;99394.91;5009199;28;20237;-65
2023/07/01 06:24:50;;;;;;;4.20;2.60;;;;;;;20.30;79.78;99399.16;4990388;28;20610;-65
2023/07/01 06:27:16;;;;;;;4.10;2.50;;;;;;;20.47;76.70;99395.53;5014721;28;20234;-65
2023/07/01 06:29:41;;;;;;;8.93;2.60;;;;;;;20.36;80.70;99397.69;5006042;28;20183;-65
2023/07/01 06:32:07;;;;;;;5.67;2.40;;;;;;;20.58;77.04;99391.78;4999680;28;20230;-66
2023/07/01 06:34:32;;;;;;;4.53;2.57;;;;;;;21.27;71.56;99398.28;4997663;28;20536;-67
2023/07/01 06:36:57;;;;;;;4.93;2.60;;;;;;;21.96;68.65;99389.75;4996671;28;20211;-64
2023/07/01 06:39:22;;;;;;;4.43;2.53;;;;;;;22.39;63.20;99392.69;4998334;28;20644;-65
2023/07/01 06:41:48;;;;;;;5.37;2.87;;;;;;;22.35;58.58;99386.16;5001827;28;20249;-65
2023/07/01 06:44:14;;;;;;;4.43;2.53;;;;;;;23.10;56.58;99386.19;4999576;28;20203;-66
2023/07/01 06:46:39;;;;;;;6.67;2.40;;;;;;;23.61;52.40;99387.22;4999440;28;20195;-65
2023/07/01 06:49:04;;;;;;;8.03;2.23;;;;;;;24.27;51.90;99380.94;4998799;28;20233;-65
2023/07/01 06:51:30;;;;;;;7.53;2.30;;;;;;;24.52;49.51;99385.75;4999262;28;20222;-65
2023/07/01 06:53:55;;;;;;;7.22;2.17;;;;;;;25.01;46.59;99381.44;5015060;28;20547;-66
2023/07/01 06:56:20;;;;;;;5.57;2.55;;;;;;;24.89;46.92;99386.41;5016667;28;20241;-66
2023/07/01 06:58:45;;;;;;;3.30;2.15;;;;;;;24.07;48.67;99378.97;5017109;28;20174;-66
2023/07/01 07:01:11;;;;;;;5.68;1.88;;;;;;;24.04;48.36;99370.66;5006493;28;20642;-65
2023/07/01 07:03:39;;;;;;;8.10;2.85;;;;;;;24.22;48.96;99373.63;5023640;28;20234;-66
2023/07/01 07:06:05;;;;;;;8.23;2.25;;;;;;;24.37;48.76;99376.16;5017174;28;20178;-66
2023/07/01 07:08:30;;;;;;;6.18;2.25;;;;;;;24.24;48.42;99374.25;5016423;28;20540;-66
2023/07/01 07:10:55;;;;;;;2.97;1.90;;;;;;;24.28;50.00;99379.94;4989658;28;20226;-66
2023/07/01 07:13:21;;;;;;;8.65;2.33;;;;;;;24.13;51.11;99378.22;5006198;28;20298;-66
2023/07/01 07:15:46;;;;;;;7.38;2.55;;;;;;;24.43;50.62;99377.22;4989449;28;20223;-66
2023/07/01 07:18:11;;;;;;;3.67;2.00;;;;;;;24.26;50.75;99364.38;5008612;28;20180;-66
2023/07/01 07:20:38;;;;;;;11.40;2.72;;;;;;;23.29;56.06;99365.66;4992636;28;20254;-66
2023/07/01 07:23:05;;;;;;;6.30;2.13;;;;;;;22.91;59.69;99378.88;4995300;28;20223;-66
2023/07/01 07:25:32;;;;;;;5.87;2.23;;;;;;;22.36;64.25;99368.63;4997415;28;20181;-65
2023/07/01 07:27:57;;;;;;;2.53;2.00;;;;;;;22.63;65.48;99377.72;4997958;28;20250;-66
2023/07/01 07:30:23;;;;;;;11.17;1.97;;;;;;;22.64;63.63;99375.91;4970541;28;20233;-66
2023/07/01 07:32:48;;;;;;;4.70;2.47;;;;;;;23.10;61.11;99377.53;5012585;28;20548;-66
2023/07/01 07:35:14;;;;;;;4.20;2.30;;;;;;;23.84;56.76;99369.47;5016954;28;20317;-66
2023/07/01 07:37:39;;;;;;;5.23;1.90;;;;;;;24.29;56.34;99374.50;5009004;28;20297;-66
2023/07/01 07:40:07;;;;;;;6.43;2.42;;;;;;;24.76;52.05;99369.56;5004048;28;20175;-67
2023/07/01 07:42:32;;;;;;;4.22;2.38;;;;;;;24.91;53.83;99372.06;5014408;28;20234;-66
2023/07/01 07:44:58;;;;;;;2.33;2.10;;;;;;;23.78;57.23;99378.09;5013942;28;21011;-66
2023/07/01 07:47:23;;;;;;;4.95;2.20;;;;;;;23.04;61.26;99368.56;5013402;28;20183;-66
2023/07/01 07:49:48;;;;;;;5.55;2.35;;;;;;;22.54;66.85;99371.75;5012921;28;20274;-65
2023/07/01 07:52:14;;;;;;;3.63;2.70;;;;;;;22.69;69.78;99368.31;5018800;28;20226;-66
2023/07/01 07:54:41;;;;;;;4.67;2.57;;;;;;;22.52;70.81;99368.47;5005391;28;20310;-65
2023/07/01 07:57:07;;;;;;;2.43;2.23;;;;;;;22.70;68.09;99356.84;4994319;28;20190;-66
2023/07/01 07:59:34;;;;;;;5.80;2.40;;;;;;;22.21;73.00;99360.72;4994302;28;20187;-59
2023/07/01 08:02:00;;;;;;;3.90;2.63;;;;;;;22.45;70.80;99362.34;4999316;28;20230;-59
2023/07/01 08:04:25;;;;;;;3.93;2.50;;;;;;;22.48;71.31;99353.31;4994783;28;20179;-59
2023/07/01 08:06:52;;;;;;;4.80;2.90;;;;;;;22.78;70.73;99353.31;5001574;28;20184;-59
2023/07/01 08:09:18;;;;;;;2.97;2.33;;;;;;;22.81;69.19;99347.69;5001178;28;20195;-59
2023/07/01 08:11:43;;;;;;;6.00;2.53;;;;;;;22.86;69.62;99342.72;4995431;28;20234;-60
2023/07/01 08:14:08;;;;;;;3.77;2.10;;;;;;;22.58;70.48;99342.56;4993277;28;20195;-62
2023/07/01 08:16:34;;;;;;;6.63;2.10;;;;;;;22.63;72.24;99345.47;4991235;28;20202;-61
2023/07/01 08:18:59;;;;;;;4.70;2.07;;;;;;;22.07;74.49;99347.41;5001174;28;20194;-61
2023/07/01 08:21:24;;;;;;;5.00;2.00;;;;;;;21.97;76.07;99340.78;4991112;28;20239;-60
2023/07/01 08:23:49;;;;;;;4.83;2.00;;;;;;;21.60;80.09;99341.41;4995963;28;20666;-60
2023/07/01 08:26:15;;;;;;;5.57;1.80;;;;;;;21.23;81.65;99339.47;4991725;28;20194;-60
2023/07/01 08:28:40;;;;;;;1.87;1.77;;;;;;;21.44;80.75;99331.03;5013107;28;20191;-61
2023/07/01 08:31:05;;;;;;;9.10;1.80;;;;;;;21.12;83.00;99336.28;5010987;28;20237;-60
2023/07/01 08:33:31;;;;;;;3.10;1.83;;;;;;;21.14;84.31;99341.31;5019125;28;20555;-61
2023/07/01 08:36:00;;;;;;;2.63;2.00;;;;;;;21.32;84.36;99348.09;5012284;28;20255;-61
2023/07/01 08:38:25;;;;;;;5.50;2.40;;;;;;;21.44;84.97;99337.06;5004482;28;20277;-61
2023/07/01 08:40:55;;;;;;;4.83;2.03;;;;;;;21.43;84.18;99340.69;5006676;28;20226;-61
2023/07/01 08:43:24;;;;;;;3.30;1.73;;;;;;;21.62;81.78;99338.63;4997584;28;20672;-60
2023/07/01 08:45:51;;;;;;;3.27;1.73;;;;;;;21.50;83.56;99332.94;5010116;28;20193;-59
2023/07/01 08:48:22;;;;;;;4.50;1.70;;;;;;;21.82;82.90;99333.72;5011426;28;20205;-59
2023/07/01 08:51:00;;;;;;;3.30;1.67;;;;;;;21.93;81.51;99338.53;5003250;28;20215;-59
2023/07/01 08:53:26;;;;;;;5.27;1.70;;;;;;;22.20;78.47;99331.13;5017518;28;20222;-60
2023/07/01 08:55:52;;;;;;;4.63;1.90;;;;;;;22.01;79.40;99329.81;5008232;28;20214;-61
2023/07/01 08:58:17;;;;;;;2.90;1.73;;;;;;;22.05;82.03;99336.34;5010382;28;20225;-61
2023/07/01 09:00:43;;;;;;;2.17;1.73;;;;;;;21.86;83.58;99334.19;4999614;28;20693;-61
2023/07/01 09:03:11;;;;;;;5.03;1.60;;;;;;;22.08;82.69;99328.09;4991995;28;20210;-60
2023/07/01 09:05:36;;;;;;;2.33;1.53;;;;;;;22.28;83.77;99324.97;4992520;28;20673;-58
2023/07/01 09:08:01;;;;;;;10.23;1.63;;;;;;;22.16;84.77;99324.59;4993438;28;20214;-58
2023/07/01 09:10:26;;;;;;;2.87;1.70;;;;;;;22.29;82.45;99317.91;4986071;28;20573;-58
2023/07/01 09:12:52;;;;;;;6.97;1.77;;;;;;;22.28;83.62;99321.53;4993731;28;20184;-60
2023/07/01 09:15:17;;;;;;;3.73;1.63;;;;;;;22.28;83.07;99314.50;5011424;28;20179;-60
2023/07/01 09:17:43;;;;;;;1.80;1.47;;;;;;;22.61;82.43;99321.22;4996588;28;20543;-61
2023/07/01 09:20:11;;;;;;;7.47;1.50;;;;;;;22.34;81.53;99315.56;4979014;28;20206;-59
2023/07/01 09:22:39;;;;;;;5.77;1.90;;;;;;;22.27;82.79;99312.06;5006652;28;20191;-59
2023/07/01 09:25:05;;;;;;;2.57;1.50;;;;;;;22.49;82.65;99319.06;4995314;28;20274;-58
2023/07/01 09:27:46;;;;;;;6.93;1.40;;;;;;;22.23;84.81;99312.41;4994986;28;20277;-58
2023/07/01 09:30:20;;;;;;;4.67;1.43;;;;;;;22.50;83.32;99317.25;4996736;28;20639;-60
2023/07/01 09:32:46;;;;;;;3.63;1.70;;;;;;;22.72;83.32;99320.75;5000796;28;20262;-59
2023/07/01 09:35:12;;;;;;;4.17;1.80;;;;;;;23.21;79.54;99317.53;4995724;28;20195;-58
2023/07/01 09:37:38;;;;;;;2.50;1.57;;;;;;;23.23;80.93;99317.34;4996749;28;20194;-59
2023/07/01 09:40:20;;;;;;;1.73;1.40;;;;;;;23.08;82.66;99319.19;4989359;28;20195;-59
2023/07/01 09:42:55;;;;;;;3.37;1.50;;;;;;;22.87;83.66;99318.13;4997013;28;20301;-58
2023/07/01 09:45:21;;;;;;;4.03;1.57;;;;;;;22.78;86.27;99312.19;4989628;28;20269;-56
2023/07/01 09:47:52;;;;;;;1.60;1.27;;;;;;;22.20;90.56;99317.19;4992303;28;20270;-56
2023/07/01 09:50:24;;;;;;;4.30;1.53;;;;;;;21.83;93.01;99317.03;4974899;28;20256;-56
2023/07/01 09:52:51;;;;;;;3.37;2.00;;;;;;;21.78;95.93;99319.38;5006166;28;20183;-56
2023/07/01 09:55:16;;;;;;;2.27;1.60;;;;;;;21.66;96.70;99310.31;4994608;28;20535;-56
2023/07/01 09:57:41;;;;;;;3.40;1.77;;;;;;;22.00;99.62;99315.06;5007171;28;20218;-57
2023/07/01 10:00:10;;;;;;;3.03;1.67;;;;;;;22.40;98.04;99309.66;4983205;28;20583;-57
2023/07/01 10:02:35;;;;;;;3.60;1.70;;;;;;;22.26;97.69;99308.63;5004164;28;20219;-57
2023/07/01 10:05:02;;;;;;;5.70;1.50;;;;;;;22.20;96.70;99310.16;4990670;28;20180;-57
2023/07/01 10:07:27;;;;;;;2.17;1.53;;;;;;;22.27;99.11;99317.31;4992035;28;20631;-57
2023/07/01 10:09:53;;;;;;;1.80;1.70;;;;;;;21.99;100.00;99310.03;4986818;28;20252;-58
2023/07/01 10:12:19;;;;;;;3.33;2.00;;;;;;;21.87;100.00;99318.31;4994855;28;20301;-57
2023/07/01 10:14:48;;;;;;;2.27;1.37;;;;;;;21.69;100.00;99315.19;4981806;28;20206;-58
2023/07/01 10:17:15;;;;;;;4.10;1.73;;;;;;;21.44;100.00;99317.94;4990231;28;20315;-57
2023/07/01 10:19:46;;;;;;;2.20;1.60;;;;;;;21.54;100.00;99321.13;4991965;28;20205;-57
2023/07/01 10:22:22;;;;;;;4.83;1.70;;;;;;;21.73;100.00;99326.91;4998044;28;20227;-59
2023/07/01 10:25:05;;;;;;;5.57;1.80;;;;;;;21.50;100.00;99325.09;4991329;28;20191;-58
2023/07/01 10:27:39;;;;;;;7.90;2.37;;;;;;;21.47;100.00;99317.59;4992298;28;20616;-59
2023/07/01 10:30:05;;;;;;;6.00;2.00;;;;;;;21.64;100.00;99313.06;4978785;28;20179;-59
2023/07/01 10:32:31;;;;;;;5.93;2.30;;;;;;;21.40;100.00;99311.44;5003702;28;20524;-58
2023/07/01 10:34:58;;;;;;;3.40;1.90;;;;;;;21.91;100.00;99319.56;4991722;28;20183;-58
2023/07/01 10:37:25;;;;;;;3.70;1.80;;;;;;;22.01;100.00;99316.72;4992517;28;20498;-59
2023/07/01 10:39:51;;;;;;;2.67;1.70;;;;;;;22.16;100.00;99315.94;4991990;28;20183;-58
2023/07/01 10:42:31;;;;;;;3.27;1.67;;;;;;;21.54;100.00;99315.91;4994145;28;20241;-57
2023/07/01 10:45:11;;;;;;;2.47;1.70;;;;;;;21.49;100.00;99312.19;4990929;28;20233;-57
2023/07/01 10:47:44;;;;;;;2.57;1.70;;;;;;;21.75;100.00;99317.09;4991572;28;20179;-58
2023/07/01 10:50:11;;;;;;;2.93;1.87;;;;;;;21.63;100.00;99310.66;4982543;28;20203;-58
2023/07/01 10:52:55;;;;;;;4.27;2.13;;;;;;;21.68;100.00;99316.16;5005776;28;20183;-59
2023/07/01 10:55:46;;;;;;;1.53;1.43;;;;;;;21.78;100.00;99316.75;4991297;28;20234;-58
2023/07/01 10:58:27;;;;;;;3.20;1.70;;;;;;;21.84;100.00;99310.00;4991547;28;20187;-60
2023/07/01 11:00:53;;;;;;;2.27;1.60;;;;;;;21.56;100.00;99303.50;4993120;28;20218;-58
2023/07/01 11:03:38;;;;;;;6.37;1.70;;;;;;;21.54;100.00;99309.84;5014217;28;21141;-58
2023/07/01 11:06:05;;;;;;;4.17;1.70;;;;;;;21.22;100.00;99307.28;4988733;28;20195;-59
2023/07/01 11:08:33;;;;;;;3.23;1.67;;;;;;;21.35;100.00;99300.69;4997972;28;20609;-58
2023/07/01 11:10:59;;;;;;;1.80;1.60;;;;;;;21.32;100.00;99301.00;4984254;28;20732;-59
2023/07/01 11:13:25;;;;;;;4.80;1.83;;;;;;;21.19;100.00;99289.31;5003726;28;20191;-59
2023/07/01 11:16:05;;;;;;;3.30;1.57;;;;;;;21.04;100.00;99289.22;4989098;28;20234;-58
2023/07/01 11:18:44;;;;;;;3.53;1.80;;;;;;;21.21;100.00;99291.75;5004851;28;20642;-58
2023/07/01 11:21:11;;;;;;;3.20;1.80;;;;;;;20.98;100.00;99281.28;4977368;28;20235;-58
2023/07/01 11:24:04;;;;;;;2.33;1.60;;;;;;;21.50;100.00;99283.22;5000969;28;20352;-57
2023/07/01 11:26:38;;;;;;;3.57;1.83;;;;;;;21.54;100.00;99281.88;5005709;28;20230;-58
2023/07/01 11:29:23;;;;;;;3.07;1.60;;;;;;;21.71;100.00;99282.59;5006020;28;20187;-58